sensor_id;sensor_type;location;lat;lon;timestamp;pressure;altitude;pressure_sealevel;temperature;humidity
5703;BME280;2876;51.738;10.050;2023-03-17T00:00:33;99016.28;;;4.31;73.69
5703;BME280;2876;51.738;10.050;2023-03-17T00:06:36;99014.81;;;4.28;72.81
5703;BME280;2876;51.738;10.050;2023-03-17T00:12:38;99011.47;;;4.26;73.23
5703;BME280;2876;51.738;10.050;2023-03-17T00:18:41;99014.66;;;4.05;73.97
5703;BME280;2876;51.738;10.050;2023-03-17T00:24:43;99020.78;;;4.06;74.28
5703;BME280;2876;51.738;10.050;2023-03-17T00:30:46;98995.56;;;3.86;74.90
5703;BME280;2876;51.738;10.050;2023-03-17T00:36:50;98999.88;;;3.70;75.59
5703;BME280;2876;51.738;10.050;2023-03-17T00:42:52;99003.00;;;3.58;76.06
5703;BME280;2876;51.738;10.050;2023-03-17T00:48:55;99004.00;;;3.56;76.46
5703;BME280;2876;51.738;10.050;2023-03-17T00:54:56;98994.16;;;3.33;76.90
5703;BME280;2876;51.738;10.050;2023-03-17T01:01:00;98998.09;;;3.20;77.92
5703;BME280;2876;51.738;10.050;2023-03-17T01:07:02;98987.09;;;2.99;78.49
5703;BME280;2876;51.738;10.050;2023-03-17T01:13:05;98988.22;;;2.88;79.73
5703;BME280;2876;51.738;10.050;2023-03-17T01:19:11;98982.13;;;2.96;79.53
5703;BME280;2876;51.738;10.050;2023-03-17T01:25:13;98983.47;;;3.00;80.45
5703;BME280;2876;51.738;10.050;2023-03-17T01:31:15;98978.00;;;3.01;80.71
5703;BME280;2876;51.738;10.050;2023-03-17T01:37:17;98981.16;;;3.05;81.13
5703;BME280;2876;51.738;10.050;2023-03-17T01:43:28;98981.69;;;3.17;80.93
5703;BME280;2876;51.738;10.050;2023-03-17T01:49:34;98962.63;;;3.13;81.18
5703;BME280;2876;51.738;10.050;2023-03-17T01:55:38;98960.00;;;3.21;80.52
5703;BME280;2876;51.738;10.050;2023-03-17T02:01:44;98953.09;;;3.28;80.88
5703;BME280;2876;51.738;10.050;2023-03-17T02:07:48;98939.16;;;3.35;80.97
5703;BME280;2876;51.738;10.050;2023-03-17T02:13:50;98962.88;;;3.44;80.30
5703;BME280;2876;51.738;10.050;2023-03-17T02:19:52;98942.69;;;3.60;80.08
5703;BME280;2876;51.738;10.050;2023-03-17T02:25:54;98939.19;;;3.43;80.48
5703;BME280;2876;51.738;10.050;2023-03-17T02:31:56;98930.59;;;3.65;79.83
5703;BME280;2876;51.738;10.050;2023-03-17T02:37:58;98935.38;;;3.37;80.62
5703;BME280;2876;51.738;10.050;2023-03-17T02:44:01;98923.28;;;3.35;81.33
5703;BME280;2876;51.738;10.050;2023-03-17T02:50:05;98909.69;;;3.38;80.86
5703;BME280;2876;51.738;10.050;2023-03-17T02:56:07;98922.97;;;3.46;81.00
5703;BME280;2876;51.738;10.050;2023-03-17T03:02:10;98924.44;;;3.48;81.51
5703;BME280;2876;51.738;10.050;2023-03-17T03:08:12;98948.31;;;3.48;81.61
5703;BME280;2876;51.738;10.050;2023-03-17T03:14:14;98930.91;;;3.54;81.26
5703;BME280;2876;51.738;10.050;2023-03-17T03:20:17;98904.38;;;3.54;81.05
5703;BME280;2876;51.738;10.050;2023-03-17T03:26:19;98902.09;;;3.51;81.66
5703;BME280;2876;51.738;10.050;2023-03-17T03:32:21;98926.59;;;3.53;82.24
5703;BME280;2876;51.738;10.050;2023-03-17T03:38:23;98932.22;;;3.34;83.19
5703;BME280;2876;51.738;10.050;2023-03-17T03:44:25;98921.44;;;3.35;82.65
5703;BME280;2876;51.738;10.050;2023-03-17T03:50:27;98922.41;;;3.18;83.24
5703;BME280;2876;51.738;10.050;2023-03-17T03:56:29;98913.78;;;3.08;83.69
5703;BME280;2876;51.738;10.050;2023-03-17T04:02:32;98911.28;;;3.06;83.16
5703;BME280;2876;51.738;10.050;2023-03-17T04:08:34;98920.03;;;2.98;82.99
5703;BME280;2876;51.738;10.050;2023-03-17T04:14:36;98911.25;;;2.90;83.32
5703;BME280;2876;51.738;10.050;2023-03-17T04:20:38;98896.00;;;2.84;83.93
5703;BME280;2876;51.738;10.050;2023-03-17T04:26:40;98883.66;;;3.00;82.91
5703;BME280;2876;51.738;10.050;2023-03-17T04:32:44;98869.19;;;2.78;83.24
5703;BME280;2876;51.738;10.050;2023-03-17T04:38:47;98873.13;;;2.74;83.05
5703;BME280;2876;51.738;10.050;2023-03-17T04:44:49;98843.19;;;2.74;83.23
5703;BME280;2876;51.738;10.050;2023-03-17T04:50:51;98861.97;;;2.46;84.07
5703;BME280;2876;51.738;10.050;2023-03-17T04:56:53;98877.69;;;2.48;84.22
5703;BME280;2876;51.738;10.050;2023-03-17T05:02:55;98870.22;;;2.43;84.09
5703;BME280;2876;51.738;10.050;2023-03-17T05:08:57;98856.53;;;2.56;84.25
5703;BME280;2876;51.738;10.050;2023-03-17T05:14:58;98859.16;;;2.48;84.25
5703;BME280;2876;51.738;10.050;2023-03-17T05:21:00;98863.31;;;2.50;84.43
5703;BME280;2876;51.738;10.050;2023-03-17T05:27:03;98841.44;;;2.48;84.73
5703;BME280;2876;51.738;10.050;2023-03-17T05:33:05;98866.59;;;2.52;84.57
5703;BME280;2876;51.738;10.050;2023-03-17T05:39:07;98858.66;;;2.52;84.32
5703;BME280;2876;51.738;10.050;2023-03-17T05:45:10;98858.16;;;2.49;84.17
5703;BME280;2876;51.738;10.050;2023-03-17T05:51:12;98831.16;;;2.37;84.73
5703;BME280;2876;51.738;10.050;2023-03-17T05:57:14;98833.09;;;2.27;84.89
5703;BME280;2876;51.738;10.050;2023-03-17T06:03:17;98857.28;;;2.32;85.17
5703;BME280;2876;51.738;10.050;2023-03-17T06:09:19;98850.50;;;2.38;84.90
5703;BME280;2876;51.738;10.050;2023-03-17T06:15:20;98844.25;;;2.47;84.59
5703;BME280;2876;51.738;10.050;2023-03-17T06:21:22;98848.44;;;2.58;84.59
5703;BME280;2876;51.738;10.050;2023-03-17T06:27:24;98848.47;;;2.66;84.08
5703;BME280;2876;51.738;10.050;2023-03-17T06:33:27;98856.94;;;2.77;84.34
5703;BME280;2876;51.738;10.050;2023-03-17T06:39:29;98860.28;;;3.04;84.22
5703;BME280;2876;51.738;10.050;2023-03-17T06:45:31;98857.63;;;3.86;84.82
5703;BME280;2876;51.738;10.050;2023-03-17T06:51:35;98862.84;;;8.06;74.50
5703;BME280;2876;51.738;10.050;2023-03-17T06:57:38;98863.34;;;11.54;63.00
5703;BME280;2876;51.738;10.050;2023-03-17T07:03:40;98848.81;;;13.22;55.61
5703;BME280;2876;51.738;10.050;2023-03-17T07:09:42;98849.66;;;13.23;47.03
5703;BME280;2876;51.738;10.050;2023-03-17T07:15:44;98859.41;;;12.32;48.06
5703;BME280;2876;51.738;10.050;2023-03-17T07:21:46;98855.25;;;10.84;53.51
5703;BME280;2876;51.738;10.050;2023-03-17T07:27:49;98857.50;;;10.09;55.28
5703;BME280;2876;51.738;10.050;2023-03-17T07:33:51;98854.03;;;10.80;54.48
5703;BME280;2876;51.738;10.050;2023-03-17T07:39:53;98847.56;;;11.89;50.03
5703;BME280;2876;51.738;10.050;2023-03-17T07:45:55;98845.53;;;10.19;54.57
5703;BME280;2876;51.738;10.050;2023-03-17T07:51:57;98843.47;;;10.07;55.59
5703;BME280;2876;51.738;10.050;2023-03-17T07:57:59;98839.81;;;9.82;57.06
5703;BME280;2876;51.738;10.050;2023-03-17T08:04:03;98834.19;;;10.10;57.80
5703;BME280;2876;51.738;10.050;2023-03-17T08:10:07;98828.34;;;10.53;55.85
5703;BME280;2876;51.738;10.050;2023-03-17T08:16:09;98823.22;;;10.45;54.59
5703;BME280;2876;51.738;10.050;2023-03-17T08:22:11;98814.53;;;11.01;53.80
5703;BME280;2876;51.738;10.050;2023-03-17T08:28:14;98813.63;;;11.70;52.56
5703;BME280;2876;51.738;10.050;2023-03-17T08:34:16;98827.31;;;13.04;48.65
5703;BME280;2876;51.738;10.050;2023-03-17T08:40:18;98824.91;;;14.73;44.09
5703;BME280;2876;51.738;10.050;2023-03-17T08:46:27;98837.06;;;17.65;38.48
5703;BME280;2876;51.738;10.050;2023-03-17T08:52:29;98832.88;;;20.39;33.84
5703;BME280;2876;51.738;10.050;2023-03-17T08:58:34;98843.88;;;22.75;29.83
5703;BME280;2876;51.738;10.050;2023-03-17T09:04:36;98838.19;;;24.96;27.37
5703;BME280;2876;51.738;10.050;2023-03-17T09:10:40;98818.91;;;26.50;25.29
5703;BME280;2876;51.738;10.050;2023-03-17T09:16:45;98790.22;;;25.89;25.33
5703;BME280;2876;51.738;10.050;2023-03-17T09:22:49;98785.16;;;24.87;26.18
5703;BME280;2876;51.738;10.050;2023-03-17T09:28:51;98766.25;;;23.51;27.28
5703;BME280;2876;51.738;10.050;2023-03-17T09:34:53;98776.25;;;22.14;29.23
5703;BME280;2876;51.738;10.050;2023-03-17T09:53:58;98762.72;;;19.75;32.93
5703;BME280;2876;51.738;10.050;2023-03-17T10:00:16;98758.34;;;20.10;33.32
5703;BME280;2876;51.738;10.050;2023-03-17T10:06:32;98752.81;;;20.40;33.26
5703;BME280;2876;51.738;10.050;2023-03-17T10:18:54;98753.69;;;20.90;33.54
5703;BME280;2876;51.738;10.050;2023-03-17T10:25:03;98757.31;;;21.20;33.16
5703;BME280;2876;51.738;10.050;2023-03-17T10:31:29;98748.00;;;22.23;31.09
5703;BME280;2876;51.738;10.050;2023-03-17T10:37:33;98736.69;;;23.35;30.15
5703;BME280;2876;51.738;10.050;2023-03-17T10:43:47;98732.94;;;23.63;29.71
5703;BME280;2876;51.738;10.050;2023-03-17T10:49:51;98720.56;;;24.26;29.49
5703;BME280;2876;51.738;10.050;2023-03-17T10:56:09;98720.31;;;26.03;27.33
5703;BME280;2876;51.738;10.050;2023-03-17T11:08:35;98728.19;;;26.76;26.36
5703;BME280;2876;51.738;10.050;2023-03-17T11:14:42;98740.53;;;25.32;28.37
5703;BME280;2876;51.738;10.050;2023-03-17T11:27:34;98740.00;;;25.74;26.70
5703;BME280;2876;51.738;10.050;2023-03-17T11:46:36;98718.44;;;25.14;27.38
5703;BME280;2876;51.738;10.050;2023-03-17T11:58:58;98695.91;;;24.90;28.17
5703;BME280;2876;51.738;10.050;2023-03-17T12:05:12;98698.53;;;24.31;28.14
5703;BME280;2876;51.738;10.050;2023-03-17T12:11:26;98687.84;;;24.71;28.91
5703;BME280;2876;51.738;10.050;2023-03-17T12:17:40;98689.00;;;24.42;29.01
5703;BME280;2876;51.738;10.050;2023-03-17T12:24:00;98684.50;;;23.91;29.34
5703;BME280;2876;51.738;10.050;2023-03-17T12:30:20;98693.72;;;23.68;29.46
5703;BME280;2876;51.738;10.050;2023-03-17T12:36:24;98679.63;;;22.90;31.08
5703;BME280;2876;51.738;10.050;2023-03-17T12:55:50;98663.34;;;20.63;33.74
5703;BME280;2876;51.738;10.050;2023-03-17T13:08:35;98663.38;;;19.88;35.16
5703;BME280;2876;51.738;10.050;2023-03-17T13:14:46;98674.78;;;19.95;36.64
5703;BME280;2876;51.738;10.050;2023-03-17T13:27:02;98659.38;;;19.19;36.25
5703;BME280;2876;51.738;10.050;2023-03-17T13:39:43;98641.97;;;19.20;37.76
5703;BME280;2876;51.738;10.050;2023-03-17T13:45:51;98625.63;;;19.30;37.75
5703;BME280;2876;51.738;10.050;2023-03-17T13:52:11;98635.72;;;18.89;39.50
5703;BME280;2876;51.738;10.050;2023-03-17T13:58:22;98645.44;;;18.64;38.18
5703;BME280;2876;51.738;10.050;2023-03-17T14:04:38;98641.34;;;18.51;40.10
5703;BME280;2876;51.738;10.050;2023-03-17T14:10:41;98640.81;;;18.60;39.74
5703;BME280;2876;51.738;10.050;2023-03-17T14:17:27;98639.13;;;18.33;39.79
5703;BME280;2876;51.738;10.050;2023-03-17T14:23:32;98626.03;;;18.20;40.68
5703;BME280;2876;51.738;10.050;2023-03-17T14:29:36;98602.47;;;18.31;40.79
5703;BME280;2876;51.738;10.050;2023-03-17T14:35:41;98589.47;;;18.58;40.81
5703;BME280;2876;51.738;10.050;2023-03-17T14:41:44;98580.78;;;18.56;40.07
5703;BME280;2876;51.738;10.050;2023-03-17T14:47:46;98591.38;;;18.68;39.95
5703;BME280;2876;51.738;10.050;2023-03-17T14:53:51;98593.88;;;17.81;41.93
5703;BME280;2876;51.738;10.050;2023-03-17T14:59:57;98575.06;;;17.64;42.20
5703;BME280;2876;51.738;10.050;2023-03-17T15:06:29;98552.25;;;17.60;43.63
5703;BME280;2876;51.738;10.050;2023-03-17T15:12:31;98558.75;;;17.54;42.97
5703;BME280;2876;51.738;10.050;2023-03-17T15:18:33;98558.56;;;17.23;43.96
5703;BME280;2876;51.738;10.050;2023-03-17T15:24:38;98571.34;;;16.59;46.23
5703;BME280;2876;51.738;10.050;2023-03-17T15:30:46;98571.88;;;16.61;46.49
5703;BME280;2876;51.738;10.050;2023-03-17T15:36:50;98567.78;;;16.26;48.21
5703;BME280;2876;51.738;10.050;2023-03-17T15:42:51;98573.19;;;16.26;50.83
5703;BME280;2876;51.738;10.050;2023-03-17T15:48:54;98570.66;;;15.92;50.31
5703;BME280;2876;51.738;10.050;2023-03-17T15:54:58;98565.50;;;15.91;53.11
5703;BME280;2876;51.738;10.050;2023-03-17T16:01:00;98565.50;;;15.69;53.12
5703;BME280;2876;51.738;10.050;2023-03-17T16:07:11;98560.00;;;15.42;54.14
5703;BME280;2876;51.738;10.050;2023-03-17T16:13:13;98561.91;;;15.25;55.25
5703;BME280;2876;51.738;10.050;2023-03-17T16:19:20;98554.56;;;15.03;55.34
5703;BME280;2876;51.738;10.050;2023-03-17T16:25:30;98555.44;;;14.87;54.43
5703;BME280;2876;51.738;10.050;2023-03-17T16:31:32;98563.69;;;14.63;55.84
5703;BME280;2876;51.738;10.050;2023-03-17T16:37:34;98562.22;;;14.56;56.14
5703;BME280;2876;51.738;10.050;2023-03-17T16:43:36;98567.13;;;14.30;58.07
5703;BME280;2876;51.738;10.050;2023-03-17T16:49:38;98563.88;;;14.00;59.30
5703;BME280;2876;51.738;10.050;2023-03-17T16:55:41;98563.47;;;13.79;60.46
5703;BME280;2876;51.738;10.050;2023-03-17T17:01:43;98564.59;;;13.55;62.26
5703;BME280;2876;51.738;10.050;2023-03-17T17:07:46;98561.09;;;13.42;63.00
5703;BME280;2876;51.738;10.050;2023-03-17T17:13:49;98561.34;;;13.17;63.31
5703;BME280;2876;51.738;10.050;2023-03-17T17:19:52;98578.91;;;12.97;64.19
5703;BME280;2876;51.738;10.050;2023-03-17T17:25:54;98575.50;;;12.78;63.70
5703;BME280;2876;51.738;10.050;2023-03-17T17:31:56;98577.81;;;12.62;64.47
5703;BME280;2876;51.738;10.050;2023-03-17T17:38:00;98572.41;;;12.51;63.40
5703;BME280;2876;51.738;10.050;2023-03-17T17:44:02;98596.25;;;12.47;64.95
5703;BME280;2876;51.738;10.050;2023-03-17T17:50:07;98600.81;;;12.16;66.03
5703;BME280;2876;51.738;10.050;2023-03-17T17:56:14;98605.56;;;12.03;65.37
5703;BME280;2876;51.738;10.050;2023-03-17T18:02:16;98602.84;;;11.91;66.15
5703;BME280;2876;51.738;10.050;2023-03-17T18:08:18;98604.09;;;11.88;66.03
5703;BME280;2876;51.738;10.050;2023-03-17T18:14:20;98603.41;;;11.56;66.69
5703;BME280;2876;51.738;10.050;2023-03-17T18:20:23;98601.84;;;11.49;66.50
5703;BME280;2876;51.738;10.050;2023-03-17T18:26:26;98606.75;;;11.70;63.81
5703;BME280;2876;51.738;10.050;2023-03-17T18:32:29;98601.78;;;11.55;65.47
5703;BME280;2876;51.738;10.050;2023-03-17T18:38:32;98608.09;;;11.61;64.85
5703;BME280;2876;51.738;10.050;2023-03-17T18:44:34;98607.97;;;11.56;66.09
5703;BME280;2876;51.738;10.050;2023-03-17T18:50:37;98614.59;;;11.53;66.98
5703;BME280;2876;51.738;10.050;2023-03-17T18:56:38;98603.84;;;11.35;66.80
5703;BME280;2876;51.738;10.050;2023-03-17T19:02:41;98606.00;;;11.26;67.84
5703;BME280;2876;51.738;10.050;2023-03-17T19:08:43;98600.81;;;11.31;67.12
5703;BME280;2876;51.738;10.050;2023-03-17T19:14:45;98607.13;;;11.37;67.28
5703;BME280;2876;51.738;10.050;2023-03-17T19:20:48;98587.66;;;11.23;67.82
5703;BME280;2876;51.738;10.050;2023-03-17T19:26:50;98586.69;;;11.17;67.55
5703;BME280;2876;51.738;10.050;2023-03-17T19:32:51;98580.72;;;11.15;66.91
5703;BME280;2876;51.738;10.050;2023-03-17T19:38:53;98584.75;;;11.25;66.29
5703;BME280;2876;51.738;10.050;2023-03-17T19:44:57;98582.16;;;10.93;68.72
5703;BME280;2876;51.738;10.050;2023-03-17T19:50:58;98599.25;;;10.74;69.18
5703;BME280;2876;51.738;10.050;2023-03-17T19:57:02;98602.66;;;10.87;68.35
5703;BME280;2876;51.738;10.050;2023-03-17T20:03:04;98601.97;;;10.67;69.42
5703;BME280;2876;51.738;10.050;2023-03-17T20:09:06;98600.66;;;10.76;68.65
5703;BME280;2876;51.738;10.050;2023-03-17T20:15:09;98600.66;;;10.51;69.49
5703;BME280;2876;51.738;10.050;2023-03-17T20:21:13;98600.91;;;10.43;69.53
5703;BME280;2876;51.738;10.050;2023-03-17T20:27:17;98601.91;;;10.49;70.15
5703;BME280;2876;51.738;10.050;2023-03-17T20:33:20;98615.50;;;10.54;70.25
5703;BME280;2876;51.738;10.050;2023-03-17T20:39:22;98607.31;;;10.74;68.14
5703;BME280;2876;51.738;10.050;2023-03-17T20:45:24;98588.94;;;10.71;67.86
5703;BME280;2876;51.738;10.050;2023-03-17T20:51:27;98591.97;;;10.56;70.02
5703;BME280;2876;51.738;10.050;2023-03-17T20:57:28;98595.22;;;10.33;71.98
5703;BME280;2876;51.738;10.050;2023-03-17T21:03:30;98597.84;;;10.39;71.90
5703;BME280;2876;51.738;10.050;2023-03-17T21:09:33;98598.22;;;10.43;70.85
5703;BME280;2876;51.738;10.050;2023-03-17T21:15:35;98593.16;;;10.60;70.12
5703;BME280;2876;51.738;10.050;2023-03-17T21:21:36;98580.13;;;10.88;67.55
5703;BME280;2876;51.738;10.050;2023-03-17T21:27:39;98572.97;;;11.26;64.25
5703;BME280;2876;51.738;10.050;2023-03-17T21:33:41;98584.31;;;11.28;62.85
5703;BME280;2876;51.738;10.050;2023-03-17T21:39:44;98576.41;;;11.14;66.27
5703;BME280;2876;51.738;10.050;2023-03-17T21:45:46;98573.56;;;10.84;68.27
5703;BME280;2876;51.738;10.050;2023-03-17T21:51:49;98578.78;;;10.79;67.19
5703;BME280;2876;51.738;10.050;2023-03-17T21:57:52;98576.78;;;10.93;65.94
5703;BME280;2876;51.738;10.050;2023-03-17T22:03:54;98583.63;;;10.89;66.62
5703;BME280;2876;51.738;10.050;2023-03-17T22:09:56;98586.09;;;10.65;68.16
5703;BME280;2876;51.738;10.050;2023-03-17T22:15:58;98584.09;;;10.61;69.50
5703;BME280;2876;51.738;10.050;2023-03-17T22:22:00;98591.47;;;10.40;70.29
5703;BME280;2876;51.738;10.050;2023-03-17T22:28:04;98600.09;;;10.43;69.75
5703;BME280;2876;51.738;10.050;2023-03-17T22:34:06;98606.94;;;10.38;70.22
5703;BME280;2876;51.738;10.050;2023-03-17T22:40:10;98596.63;;;10.35;70.19
5703;BME280;2876;51.738;10.050;2023-03-17T22:46:14;98600.34;;;10.34;70.47
5703;BME280;2876;51.738;10.050;2023-03-17T22:52:16;98596.91;;;10.21;70.17
5703;BME280;2876;51.738;10.050;2023-03-17T22:58:18;98598.31;;;10.61;68.35
5703;BME280;2876;51.738;10.050;2023-03-17T23:04:20;98584.41;;;10.46;68.41
5703;BME280;2876;51.738;10.050;2023-03-17T23:10:22;98586.59;;;10.81;65.48
5703;BME280;2876;51.738;10.050;2023-03-17T23:16:25;98605.91;;;10.89;64.74
5703;BME280;2876;51.738;10.050;2023-03-17T23:22:27;98593.44;;;11.02;65.29
5703;BME280;2876;51.738;10.050;2023-03-17T23:28:29;98589.66;;;11.09;65.85
5703;BME280;2876;51.738;10.050;2023-03-17T23:34:31;98593.88;;;10.99;65.52
5703;BME280;2876;51.738;10.050;2023-03-17T23:40:33;98610.75;;;11.06;66.59
5703;BME280;2876;51.738;10.050;2023-03-17T23:46:37;98616.91;;;11.31;65.25
5703;BME280;2876;51.738;10.050;2023-03-17T23:52:40;98615.31;;;11.24;66.43
5703;BME280;2876;51.738;10.050;2023-03-17T23:58:43;98617.50;;;11.33;63.96
